Time;durP1;ratioP1;P1;durP2;ratioP2;P2;SDS_P1;SDS_P2;PMS_P1;PMS_P2;Temp;Humidity;BMP_temperature;BMP_pressure;BME280_temperature;BME280_humidity;BME280_pressure;Samples;Min_cycle;Max_cycle;Signal;HPM_P1;HPM_P2
2021/08/05 00:00:58;;;;;;;28.63;21.90;;;;;;;;;;5110254;27;20561;-63
2021/08/05 00:03:24;;;;;;;30.67;23.27;;;;;;;;;;5110872;27;20566;-63
2021/08/05 00:05:50;;;;;;;31.05;22.73;;;;;;;;;;5110276;27;20027;-63
2021/08/05 00:08:16;;;;;;;29.75;22.95;;;;;;;;;;5114751;27;20069;-63
2021/08/05 00:10:42;;;;;;;28.33;22.50;;;;;;;;;;5110891;27;20032;-63
2021/08/05 00:13:08;;;;;;;30.92;22.65;;;;;;;;;;5112982;27;21902;-63
2021/08/05 00:15:34;;;;;;;32.78;22.17;;;;;;;;;;5110470;27;20024;-65
2021/08/05 00:18:00;;;;;;;34.70;25.60;;;;;;;;;;5110861;27;20088;-66
2021/08/05 00:20:26;;;;;;;30.75;21.55;;;;;;;;;;5111522;27;20046;-65
2021/08/05 00:22:52;;;;;;;29.30;23.20;;;;;;;;;;5113966;27;20019;-65
2021/08/05 00:25:18;;;;;;;29.65;22.40;;;;;;;;;;5121950;27;20095;-65
2021/08/05 00:27:44;;;;;;;31.23;23.02;;;;;;;;;;5111195;28;20023;-65
2021/08/05 00:30:11;;;;;;;24.55;19.75;;;;;;;;;;5113256;27;20047;-65
2021/08/05 00:32:37;;;;;;;26.85;21.05;;;;;;;;;;5110624;27;20501;-65
2021/08/05 00:35:03;;;;;;;29.45;22.45;;;;;;;;;;5112594;27;20108;-65
2021/08/05 00:37:29;;;;;;;28.73;20.73;;;;;;;;;;5103531;28;20023;-65
2021/08/05 00:39:55;;;;;;;28.23;22.42;;;;;;;;;;5107597;28;20497;-65
2021/08/05 00:42:22;;;;;;;26.50;20.70;;;;;;;;;;5113021;27;20046;-65
2021/08/05 00:44:48;;;;;;;29.73;23.35;;;;;;;;;;5106864;27;20046;-65
2021/08/05 00:47:14;;;;;;;30.13;23.38;;;;;;;;;;5107186;28;20080;-65
2021/08/05 00:49:40;;;;;;;30.52;23.42;;;;;;;;;;5108755;28;20053;-65
2021/08/05 00:52:06;;;;;;;31.63;24.73;;;;;;;;;;5108835;28;20483;-65
2021/08/05 00:54:32;;;;;;;31.95;25.88;;;;;;;;;;5111342;28;20069;-65
2021/08/05 00:56:58;;;;;;;33.47;26.10;;;;;;;;;;5107555;28;20042;-65
2021/08/05 00:59:24;;;;;;;35.13;25.73;;;;;;;;;;5111454;27;20015;-65
2021/08/05 01:01:53;;;;;;;32.25;25.95;;;;;;;;;;5109860;28;20098;-65
2021/08/05 01:04:20;;;;;;;34.20;25.45;;;;;;;;;;5109698;28;20081;-65
2021/08/05 01:06:59;;;;;;;33.22;25.55;;;;;;;;;;5109349;27;20020;-65
2021/08/05 01:09:44;;;;;;;39.13;27.77;;;;;;;;;;5111174;27;20027;-65
2021/08/05 01:12:12;;;;;;;38.33;27.60;;;;;;;;;;5110141;28;20035;-65
2021/08/05 01:14:40;;;;;;;33.65;26.30;;;;;;;;;;5110451;28;20098;-65
2021/08/05 01:17:08;;;;;;;33.92;26.55;;;;;;;;;;5105267;28;20026;-65
2021/08/05 01:19:43;;;;;;;39.97;28.60;;;;;;;;;;5107693;28;20037;-65
2021/08/05 01:22:09;;;;;;;40.20;29.88;;;;;;;;;;5109864;28;20031;-65
2021/08/05 01:24:37;;;;;;;44.55;31.10;;;;;;;;;;5108847;28;20031;-65
2021/08/05 01:27:03;;;;;;;39.88;29.02;;;;;;;;;;5109003;27;20490;-65
2021/08/05 01:29:32;;;;;;;45.15;30.13;;;;;;;;;;5108218;28;20024;-65
2021/08/05 01:31:58;;;;;;;39.35;28.52;;;;;;;;;;5105845;28;20054;-65
2021/08/05 01:34:25;;;;;;;36.90;27.90;;;;;;;;;;5110160;28;20137;-65
2021/08/05 01:36:52;;;;;;;35.00;25.83;;;;;;;;;;5108945;27;20027;-65
2021/08/05 01:39:18;;;;;;;35.45;27.08;;;;;;;;;;5106133;28;20016;-65
2021/08/05 01:41:46;;;;;;;33.92;26.00;;;;;;;;;;5109171;28;20073;-65
2021/08/05 01:44:13;;;;;;;34.03;26.65;;;;;;;;;;5109508;28;20036;-65
2021/08/05 01:46:40;;;;;;;40.13;29.60;;;;;;;;;;5106955;28;20019;-65
2021/08/05 01:49:06;;;;;;;43.05;31.50;;;;;;;;;;5107407;28;20019;-65
2021/08/05 01:51:32;;;;;;;41.28;30.13;;;;;;;;;;5108955;28;20028;-65
2021/08/05 01:54:00;;;;;;;38.05;29.33;;;;;;;;;;5107122;28;20062;-65
2021/08/05 01:56:26;;;;;;;42.05;30.67;;;;;;;;;;5107213;28;20028;-65
2021/08/05 01:58:55;;;;;;;41.47;30.58;;;;;;;;;;5108328;28;20081;-65
2021/08/05 02:01:21;;;;;;;40.38;29.80;;;;;;;;;;5117277;28;20031;-65
2021/08/05 02:04:06;;;;;;;37.22;26.85;;;;;;;;;;5121005;28;20046;-65
2021/08/05 02:06:34;;;;;;;40.97;27.92;;;;;;;;;;5113518;28;20019;-65
2021/08/05 02:09:26;;;;;;;38.15;28.05;;;;;;;;;;5110676;28;20061;-65
2021/08/05 02:11:53;;;;;;;34.90;26.17;;;;;;;;;;5109991;28;20514;-65
2021/08/05 02:14:21;;;;;;;35.72;26.60;;;;;;;;;;5110669;28;20053;-65
2021/08/05 02:16:47;;;;;;;35.30;25.13;;;;;;;;;;5110785;28;20022;-65
2021/08/05 02:19:14;;;;;;;36.95;27.70;;;;;;;;;;5123144;28;20381;-65
2021/08/05 02:21:41;;;;;;;36.00;27.05;;;;;;;;;;5126396;28;20024;-65
2021/08/05 02:24:07;;;;;;;36.83;27.33;;;;;;;;;;5110794;28;20036;-65
2021/08/05 02:26:33;;;;;;;36.00;27.38;;;;;;;;;;5105720;28;20117;-65
2021/08/05 02:28:59;;;;;;;41.70;28.95;;;;;;;;;;5114742;28;20670;-65
2021/08/05 02:31:25;;;;;;;42.83;30.60;;;;;;;;;;5114398;28;20023;-65
2021/08/05 02:33:52;;;;;;;40.40;30.55;;;;;;;;;;5110709;28;20023;-65
2021/08/05 02:36:18;;;;;;;35.30;26.35;;;;;;;;;;5110690;28;20045;-65
2021/08/05 02:38:44;;;;;;;38.90;28.17;;;;;;;;;;5109659;28;20027;-65
2021/08/05 02:41:11;;;;;;;46.65;32.65;;;;;;;;;;5109681;28;20122;-65
2021/08/05 02:43:38;;;;;;;40.92;29.42;;;;;;;;;;5110463;28;20039;-65
2021/08/05 02:46:05;;;;;;;41.00;30.17;;;;;;;;;;5098649;28;20069;-65
2021/08/05 02:48:33;;;;;;;41.97;29.58;;;;;;;;;;5114288;28;20031;-65
2021/08/05 02:51:00;;;;;;;39.17;28.85;;;;;;;;;;5113749;28;20019;-65
2021/08/05 02:53:27;;;;;;;39.38;27.85;;;;;;;;;;5110520;28;20076;-65
2021/08/05 02:55:54;;;;;;;49.10;33.00;;;;;;;;;;5106472;28;20601;-65
2021/08/05 02:58:20;;;;;;;43.53;31.70;;;;;;;;;;5111878;28;20483;-65
2021/08/05 03:00:46;;;;;;;47.42;31.83;;;;;;;;;;5109177;28;20015;-65
2021/08/05 03:03:12;;;;;;;52.75;35.80;;;;;;;;;;5116674;27;20034;-65
2021/08/05 03:05:40;;;;;;;51.20;35.30;;;;;;;;;;5129515;27;20108;-65
2021/08/05 03:08:06;;;;;;;51.53;34.67;;;;;;;;;;5125421;27;20088;-64
2021/08/05 03:10:32;;;;;;;53.88;35.88;;;;;;;;;;5119918;27;20024;-65
2021/08/05 03:12:58;;;;;;;52.53;35.60;;;;;;;;;;5113411;28;20020;-65
2021/08/05 03:15:24;;;;;;;56.28;36.38;;;;;;;;;;5111334;28;20085;-65
2021/08/05 03:17:50;;;;;;;50.53;34.33;;;;;;;;;;5111393;28;20042;-65
2021/08/05 03:20:17;;;;;;;46.13;32.10;;;;;;;;;;5112694;28;20514;-65
2021/08/05 03:22:46;;;;;;;48.92;32.10;;;;;;;;;;5122294;27;20028;-65
2021/08/05 03:25:12;;;;;;;43.72;30.70;;;;;;;;;;5112738;28;20028;-65
2021/08/05 03:27:39;;;;;;;46.47;32.45;;;;;;;;;;5112789;28;20031;-65
2021/08/05 03:30:05;;;;;;;45.25;32.45;;;;;;;;;;5111423;28;20490;-65
2021/08/05 03:32:31;;;;;;;46.30;32.35;;;;;;;;;;5113414;28;20038;-65
2021/08/05 03:34:57;;;;;;;47.08;31.30;;;;;;;;;;5105009;28;20027;-65
2021/08/05 03:37:23;;;;;;;46.42;31.67;;;;;;;;;;5116942;27;20577;-65
2021/08/05 03:39:49;;;;;;;45.20;32.08;;;;;;;;;;5132569;27;20050;-65
2021/08/05 03:42:15;;;;;;;52.25;34.15;;;;;;;;;;5119085;27;20478;-65
2021/08/05 03:44:42;;;;;;;51.83;33.58;;;;;;;;;;5113385;28;20444;-65
2021/08/05 03:47:08;;;;;;;49.00;34.47;;;;;;;;;;5112403;27;20028;-65
2021/08/05 03:49:34;;;;;;;49.67;33.47;;;;;;;;;;5114873;27;20058;-65
2021/08/05 03:52:00;;;;;;;46.17;32.00;;;;;;;;;;5108068;28;20019;-65
2021/08/05 03:54:26;;;;;;;52.10;33.85;;;;;;;;;;5120878;27;20032;-65
2021/08/05 03:56:52;;;;;;;45.33;31.65;;;;;;;;;;5115840;27;20024;-65
2021/08/05 03:59:18;;;;;;;48.13;31.90;;;;;;;;;;5123513;27;20035;-65
2021/08/05 04:01:44;;;;;;;48.85;33.35;;;;;;;;;;5123514;27;20034;-65
2021/08/05 04:04:10;;;;;;;52.10;33.33;;;;;;;;;;5104830;28;20135;-65
2021/08/05 04:06:36;;;;;;;53.13;32.03;;;;;;;;;;5110143;28;20154;-65
2021/08/05 04:09:02;;;;;;;47.50;34.03;;;;;;;;;;5110839;27;20020;-65
2021/08/05 04:11:28;;;;;;;48.85;32.88;;;;;;;;;;5113719;27;20129;-65
2021/08/05 04:13:54;;;;;;;52.00;33.78;;;;;;;;;;5114166;27;20042;-65
2021/08/05 04:16:20;;;;;;;51.25;34.40;;;;;;;;;;5126804;27;20053;-65
2021/08/05 04:18:46;;;;;;;52.05;35.05;;;;;;;;;;5116763;27;20038;-65
2021/08/05 04:21:12;;;;;;;55.58;34.85;;;;;;;;;;5113701;27;20030;-65
2021/08/05 04:23:38;;;;;;;52.45;35.78;;;;;;;;;;5112428;28;20038;-65
2021/08/05 04:26:04;;;;;;;51.55;35.53;;;;;;;;;;5109121;28;20024;-65
2021/08/05 04:28:30;;;;;;;54.95;34.80;;;;;;;;;;5114722;27;20373;-65
2021/08/05 04:30:56;;;;;;;56.75;37.30;;;;;;;;;;5129588;27;20498;-65
2021/08/05 04:33:22;;;;;;;54.17;34.78;;;;;;;;;;5112032;28;20038;-65
2021/08/05 04:35:48;;;;;;;52.97;33.25;;;;;;;;;;5109626;27;20032;-65
2021/08/05 04:38:14;;;;;;;67.68;40.20;;;;;;;;;;5116038;27;20012;-65
2021/08/05 04:40:42;;;;;;;68.60;42.40;;;;;;;;;;5118026;27;20753;-65
2021/08/05 04:43:08;;;;;;;65.15;40.08;;;;;;;;;;5112827;27;20028;-65
2021/08/05 04:45:34;;;;;;;67.68;42.88;;;;;;;;;;5097465;28;20719;-65
2021/08/05 04:48:01;;;;;;;61.95;39.45;;;;;;;;;;5111332;28;20026;-65
2021/08/05 04:50:29;;;;;;;62.00;40.30;;;;;;;;;;5110028;27;20494;-65
2021/08/05 04:52:55;;;;;;;65.75;40.65;;;;;;;;;;5109239;27;20039;-65
2021/08/05 04:55:22;;;;;;;64.45;39.78;;;;;;;;;;5110034;28;20110;-65
2021/08/05 04:57:49;;;;;;;65.38;41.95;;;;;;;;;;5109797;28;20027;-65
2021/08/05 05:00:20;;;;;;;71.78;42.50;;;;;;;;;;5113054;27;20498;-65
2021/08/05 05:02:46;;;;;;;68.38;42.70;;;;;;;;;;5110447;27;20035;-65
2021/08/05 05:05:12;;;;;;;67.30;42.75;;;;;;;;;;5107231;28;20055;-65
2021/08/05 05:07:38;;;;;;;68.68;41.90;;;;;;;;;;5108694;28;20084;-65
2021/08/05 05:10:04;;;;;;;68.93;43.17;;;;;;;;;;5110168;27;20023;-65
2021/08/05 05:12:30;;;;;;;68.40;42.00;;;;;;;;;;5111292;27;20035;-64
2021/08/05 05:14:56;;;;;;;69.20;42.17;;;;;;;;;;5101926;28;20031;-65
2021/08/05 05:17:22;;;;;;;66.40;40.78;;;;;;;;;;5096825;28;20028;-64
2021/08/05 05:19:48;;;;;;;63.30;39.03;;;;;;;;;;5110337;28;20076;-65
2021/08/05 05:22:14;;;;;;;64.05;39.55;;;;;;;;;;5110016;28;20090;-65
2021/08/05 05:24:40;;;;;;;59.60;38.70;;;;;;;;;;5108314;28;20101;-65
2021/08/05 05:27:06;;;;;;;64.18;40.67;;;;;;;;;;5109054;27;20046;-65
2021/08/05 05:29:32;;;;;;;69.55;42.50;;;;;;;;;;5108457;27;20020;-65
2021/08/05 05:31:58;;;;;;;75.25;45.20;;;;;;;;;;5113393;27;20055;-65
2021/08/05 05:34:24;;;;;;;80.80;47.95;;;;;;;;;;5109306;28;20639;-65
2021/08/05 05:36:51;;;;;;;70.35;44.63;;;;;;;;;;5106844;27;20563;-65
2021/08/05 05:39:17;;;;;;;71.93;43.53;;;;;;;;;;5109872;27;20491;-65
2021/08/05 05:41:43;;;;;;;69.03;43.60;;;;;;;;;;5110380;28;20026;-65
2021/08/05 05:44:09;;;;;;;78.43;46.08;;;;;;;;;;5097100;28;20478;-65
2021/08/05 05:46:35;;;;;;;75.30;43.33;;;;;;;;;;5103937;28;20031;-65
2021/08/05 05:49:01;;;;;;;73.88;44.03;;;;;;;;;;5100006;27;20024;-65
2021/08/05 05:51:27;;;;;;;89.68;51.38;;;;;;;;;;5100536;28;20028;-65
2021/08/05 05:53:53;;;;;;;92.53;53.10;;;;;;;;;;5108915;28;20027;-65
2021/08/05 05:56:20;;;;;;;86.78;50.60;;;;;;;;;;5108039;28;20039;-65
2021/08/05 05:58:46;;;;;;;96.07;52.80;;;;;;;;;;5111081;28;20486;-66
2021/08/05 06:01:12;;;;;;;102.45;58.55;;;;;;;;;;5108154;28;20038;-65
2021/08/05 06:03:38;;;;;;;97.88;58.35;;;;;;;;;;5109745;28;20027;-65
2021/08/05 06:06:04;;;;;;;113.85;61.03;;;;;;;;;;5108901;28;20040;-65
2021/08/05 06:08:30;;;;;;;105.80;59.65;;;;;;;;;;5105650;28;20457;-65
2021/08/05 06:10:56;;;;;;;106.95;61.15;;;;;;;;;;5111733;28;20020;-65
2021/08/05 06:13:22;;;;;;;132.05;71.32;;;;;;;;;;5110472;28;20023;-65
2021/08/05 06:15:48;;;;;;;141.07;78.22;;;;;;;;;;5108227;28;20023;-65
2021/08/05 06:18:14;;;;;;;145.52;77.70;;;;;;;;;;5107980;28;20263;-65
2021/08/05 06:20:40;;;;;;;152.20;82.68;;;;;;;;;;5109154;28;20573;-65
2021/08/05 06:23:08;;;;;;;161.07;83.88;;;;;;;;;;5109603;28;20031;-65
2021/08/05 06:25:35;;;;;;;167.88;87.80;;;;;;;;;;5106677;28;20028;-65
2021/08/05 06:28:01;;;;;;;163.70;84.18;;;;;;;;;;5113643;28;20047;-65
2021/08/05 06:30:27;;;;;;;173.43;89.10;;;;;;;;;;5105006;28;20177;-65
2021/08/05 06:32:53;;;;;;;181.95;91.72;;;;;;;;;;5105389;28;20027;-65
2021/08/05 06:35:19;;;;;;;163.88;87.07;;;;;;;;;;5111312;27;20026;-65
2021/08/05 06:37:46;;;;;;;164.18;85.90;;;;;;;;;;5115525;27;20023;-65
2021/08/05 06:40:12;;;;;;;168.55;88.97;;;;;;;;;;5115804;27;20032;-65
2021/08/05 06:42:38;;;;;;;142.88;80.40;;;;;;;;;;5116432;27;20667;-65
2021/08/05 06:45:05;;;;;;;138.57;75.93;;;;;;;;;;5106503;27;20482;-66
2021/08/05 06:47:31;;;;;;;132.85;78.40;;;;;;;;;;5104973;27;20032;-65
2021/08/05 06:49:58;;;;;;;127.68;73.80;;;;;;;;;;5106354;27;20107;-65
2021/08/05 06:52:24;;;;;;;132.65;76.82;;;;;;;;;;5109074;27;20012;-66
2021/08/05 06:54:50;;;;;;;121.65;73.45;;;;;;;;;;5116284;27;20023;-65
2021/08/05 06:57:16;;;;;;;127.88;72.95;;;;;;;;;;5110924;27;20032;-66
2021/08/05 06:59:42;;;;;;;127.13;79.95;;;;;;;;;;5116256;27;20023;-66
2021/08/05 07:02:08;;;;;;;116.50;74.80;;;;;;;;;;5118615;27;20027;-66
2021/08/05 07:04:34;;;;;;;111.22;70.68;;;;;;;;;;5126964;27;20043;-66
2021/08/05 07:07:00;;;;;;;112.43;66.57;;;;;;;;;;5116327;27;20468;-65
2021/08/05 07:09:26;;;;;;;99.07;63.05;;;;;;;;;;5108355;27;20043;-66
2021/08/05 07:11:52;;;;;;;96.78;64.00;;;;;;;;;;5114073;27;20027;-66
2021/08/05 07:14:18;;;;;;;83.68;59.70;;;;;;;;;;5129140;27;20042;-66
2021/08/05 07:16:44;;;;;;;91.43;60.05;;;;;;;;;;5106555;27;20080;-66
2021/08/05 07:19:10;;;;;;;92.65;60.75;;;;;;;;;;5118560;27;20049;-66
2021/08/05 07:21:36;;;;;;;86.30;58.30;;;;;;;;;;5122373;27;20019;-66
2021/08/05 07:24:03;;;;;;;88.90;56.83;;;;;;;;;;5111031;27;20027;-66
2021/08/05 07:26:29;;;;;;;86.05;55.58;;;;;;;;;;5112111;27;20081;-66
2021/08/05 07:28:55;;;;;;;76.63;56.03;;;;;;;;;;5114501;27;20108;-65
2021/08/05 07:31:21;;;;;;;85.28;56.17;;;;;;;;;;5125255;27;20442;-66
2021/08/05 07:33:52;;;;;;;78.00;53.53;;;;;;;;;;5099883;27;20024;-66
2021/08/05 07:36:19;;;;;;;74.00;50.75;;;;;;;;;;5105579;27;20046;-66
2021/08/05 07:38:45;;;;;;;76.50;53.10;;;;;;;;;;5121726;27;20035;-66
2021/08/05 07:41:11;;;;;;;82.22;54.85;;;;;;;;;;5120309;27;20019;-66
2021/08/05 07:43:37;;;;;;;83.50;56.88;;;;;;;;;;5121182;27;20053;-66
2021/08/05 07:46:03;;;;;;;81.70;53.05;;;;;;;;;;5107395;27;20020;-66
2021/08/05 07:48:29;;;;;;;77.53;56.08;;;;;;;;;;5108636;27;20020;-66
2021/08/05 07:50:55;;;;;;;72.32;52.92;;;;;;;;;;5114819;27;20036;-66
2021/08/05 07:53:21;;;;;;;70.47;52.10;;;;;;;;;;5113372;27;20098;-66
2021/08/05 07:55:47;;;;;;;70.40;49.95;;;;;;;;;;5110142;27;20065;-65
2021/08/05 07:58:13;;;;;;;66.93;47.67;;;;;;;;;;5105814;28;20547;-66
2021/08/05 08:00:39;;;;;;;68.43;47.00;;;;;;;;;;5111873;27;20036;-66
2021/08/05 08:03:05;;;;;;;62.53;44.92;;;;;;;;;;5106230;27;20395;-66
2021/08/05 08:05:32;;;;;;;59.70;44.40;;;;;;;;;;5112161;27;20042;-66
2021/08/05 08:07:59;;;;;;;59.67;43.28;;;;;;;;;;5116583;27;20023;-66
2021/08/05 08:10:26;;;;;;;57.67;40.30;;;;;;;;;;5109959;27;20039;-66
2021/08/05 08:12:52;;;;;;;67.38;46.90;;;;;;;;;;5124105;27;20028;-66
2021/08/05 08:15:22;;;;;;;59.75;43.15;;;;;;;;;;5109080;27;20594;-66
2021/08/05 08:17:48;;;;;;;62.30;43.35;;;;;;;;;;5119435;27;20030;-66
2021/08/05 08:20:14;;;;;;;52.38;39.42;;;;;;;;;;5110773;27;20035;-66
2021/08/05 08:22:40;;;;;;;51.40;36.97;;;;;;;;;;5113622;27;20026;-65
2021/08/05 08:25:07;;;;;;;48.28;35.53;;;;;;;;;;5117044;27;20027;-65
2021/08/05 08:27:33;;;;;;;51.58;35.75;;;;;;;;;;5111783;27;20024;-65
2021/08/05 08:29:59;;;;;;;48.45;36.33;;;;;;;;;;5108495;27;20375;-65
2021/08/05 08:32:25;;;;;;;51.25;36.50;;;;;;;;;;5111786;27;20050;-66
2021/08/05 08:34:51;;;;;;;53.53;37.65;;;;;;;;;;5117019;27;20027;-65
2021/08/05 08:37:17;;;;;;;51.22;37.38;;;;;;;;;;5107799;27;20027;-65
2021/08/05 08:39:43;;;;;;;52.42;38.95;;;;;;;;;;5123501;27;20058;-65
2021/08/05 08:42:09;;;;;;;52.67;37.40;;;;;;;;;;5122922;27;20031;-65
2021/08/05 08:44:35;;;;;;;55.17;42.20;;;;;;;;;;5117735;27;20085;-65
2021/08/05 08:47:01;;;;;;;51.58;37.50;;;;;;;;;;5113705;27;20023;-65
2021/08/05 08:49:28;;;;;;;49.50;35.28;;;;;;;;;;5120148;27;20040;-66
2021/08/05 08:51:56;;;;;;;45.53;33.20;;;;;;;;;;5117982;27;20062;-66
2021/08/05 08:54:22;;;;;;;42.30;28.60;;;;;;;;;;5112062;27;20035;-65
2021/08/05 08:56:50;;;;;;;36.63;26.50;;;;;;;;;;5110107;27;20547;-66
2021/08/05 08:59:18;;;;;;;35.53;25.27;;;;;;;;;;5107200;27;20037;-65
2021/08/05 09:01:44;;;;;;;36.30;26.50;;;;;;;;;;5106929;27;20119;-66
2021/08/05 09:04:10;;;;;;;33.63;26.02;;;;;;;;;;5111432;27;20059;-66
2021/08/05 09:06:36;;;;;;;28.13;21.77;;;;;;;;;;5127055;27;20031;-66
2021/08/05 09:09:05;;;;;;;28.88;20.40;;;;;;;;;;5114411;27;20038;-66
2021/08/05 09:11:31;;;;;;;27.88;19.70;;;;;;;;;;5112660;27;20019;-65
2021/08/05 09:13:57;;;;;;;23.98;17.70;;;;;;;;;;5112943;27;20032;-66
2021/08/05 09:16:30;;;;;;;25.55;18.48;;;;;;;;;;5116573;27;20496;-66
2021/08/05 09:19:10;;;;;;;21.83;16.17;;;;;;;;;;5104854;27;20024;-66
2021/08/05 09:21:36;;;;;;;23.80;16.52;;;;;;;;;;5118803;27;20501;-66
2021/08/05 09:24:06;;;;;;;22.23;15.13;;;;;;;;;;5116884;27;20147;-66
2021/08/05 09:26:41;;;;;;;21.92;17.05;;;;;;;;;;5113644;27;20054;-65
2021/08/05 09:29:07;;;;;;;19.92;14.85;;;;;;;;;;5111307;27;20068;-66
2021/08/05 09:31:33;;;;;;;24.15;18.98;;;;;;;;;;5107561;27;20031;-65
2021/08/05 09:34:05;;;;;;;21.23;16.80;;;;;;;;;;5106088;27;20027;-65
2021/08/05 09:36:31;;;;;;;20.10;16.33;;;;;;;;;;5099351;27;20080;-65
2021/08/05 09:38:57;;;;;;;23.48;17.40;;;;;;;;;;5108102;27;20294;-65
2021/08/05 09:41:23;;;;;;;29.75;19.30;;;;;;;;;;5108727;27;20062;-65
2021/08/05 09:43:49;;;;;;;24.85;18.88;;;;;;;;;;5112264;27;20019;-66
2021/08/05 09:46:29;;;;;;;26.80;20.20;;;;;;;;;;5104194;28;20462;-66
2021/08/05 09:48:55;;;;;;;21.70;15.38;;;;;;;;;;5106260;28;20070;-66
2021/08/05 09:51:21;;;;;;;25.75;19.70;;;;;;;;;;5108427;28;20066;-66
2021/08/05 09:53:56;;;;;;;28.70;21.02;;;;;;;;;;5108061;28;20012;-65
2021/08/05 09:56:23;;;;;;;31.92;22.20;;;;;;;;;;5109731;27;20019;-65
2021/08/05 09:58:49;;;;;;;25.42;19.13;;;;;;;;;;5112568;28;20039;-66
2021/08/05 10:01:15;;;;;;;26.95;21.38;;;;;;;;;;5110854;28;20634;-66
2021/08/05 10:03:42;;;;;;;29.08;21.77;;;;;;;;;;5114866;28;20024;-65
2021/08/05 10:06:08;;;;;;;27.27;21.27;;;;;;;;;;5099258;28;20039;-66
2021/08/05 10:08:43;;;;;;;29.00;22.48;;;;;;;;;;5121365;28;20023;-66
2021/08/05 10:11:09;;;;;;;32.88;23.05;;;;;;;;;;5121040;27;20019;-66
2021/08/05 10:13:37;;;;;;;33.95;26.20;;;;;;;;;;5117464;27;20042;-66
2021/08/05 10:16:03;;;;;;;31.48;22.67;;;;;;;;;;5113280;27;20024;-66
2021/08/05 10:18:30;;;;;;;31.08;23.55;;;;;;;;;;5119021;27;20020;-66
2021/08/05 10:20:58;;;;;;;29.08;22.38;;;;;;;;;;5116439;27;20106;-67
2021/08/05 10:23:25;;;;;;;31.05;24.67;;;;;;;;;;5113629;27;20398;-66
2021/08/05 10:25:52;;;;;;;28.98;22.05;;;;;;;;;;5117472;27;20071;-66
2021/08/05 10:28:18;;;;;;;29.73;21.17;;;;;;;;;;5126297;27;20032;-66
2021/08/05 10:30:44;;;;;;;32.03;23.05;;;;;;;;;;5118992;27;20054;-66
2021/08/05 10:33:10;;;;;;;31.27;23.40;;;;;;;;;;5113042;27;20016;-66
2021/08/05 10:35:37;;;;;;;32.28;23.98;;;;;;;;;;5113077;27;20027;-66
2021/08/05 10:38:05;;;;;;;32.97;25.25;;;;;;;;;;5124024;27;20494;-66
2021/08/05 10:40:31;;;;;;;28.58;21.92;;;;;;;;;;5121007;27;20368;-67
2021/08/05 10:42:59;;;;;;;32.65;24.55;;;;;;;;;;5112386;27;20050;-66
2021/08/05 10:45:26;;;;;;;38.25;22.77;;;;;;;;;;5116514;27;20585;-66
2021/08/05 10:47:56;;;;;;;30.55;23.02;;;;;;;;;;5117849;27;20020;-66
2021/08/05 10:50:23;;;;;;;34.55;27.38;;;;;;;;;;5114774;27;20022;-66
2021/08/05 10:52:51;;;;;;;34.78;26.45;;;;;;;;;;5119967;27;20016;-66
2021/08/05 10:55:17;;;;;;;34.25;26.60;;;;;;;;;;5116627;27;20088;-67
2021/08/05 10:57:44;;;;;;;38.38;30.30;;;;;;;;;;5118658;27;20023;-66
2021/08/05 11:00:14;;;;;;;34.38;26.35;;;;;;;;;;5116510;27;20032;-66
2021/08/05 11:02:43;;;;;;;37.67;29.40;;;;;;;;;;5114471;27;20032;-67
2021/08/05 11:05:09;;;;;;;36.80;27.40;;;;;;;;;;5112222;27;20039;-66
2021/08/05 11:07:35;;;;;;;40.22;31.42;;;;;;;;;;5116656;27;20107;-66
2021/08/05 11:10:16;;;;;;;38.10;27.92;;;;;;;;;;5116136;27;20069;-66
2021/08/05 11:12:48;;;;;;;39.90;30.55;;;;;;;;;;5122298;27;20054;-66
2021/08/05 11:15:25;;;;;;;44.25;34.60;;;;;;;;;;5113357;27;20055;-66
2021/08/05 11:18:07;;;;;;;47.90;36.42;;;;;;;;;;5117175;27;20024;-66
2021/08/05 11:20:37;;;;;;;45.72;33.60;;;;;;;;;;5113617;27;20035;-66
2021/08/05 11:23:06;;;;;;;46.13;34.13;;;;;;;;;;5117278;27;20031;-67
2021/08/05 11:25:51;;;;;;;52.10;40.10;;;;;;;;;;5119932;27;20081;-67
2021/08/05 11:28:24;;;;;;;53.47;37.85;;;;;;;;;;5111878;28;20494;-66
2021/08/05 11:30:51;;;;;;;47.42;36.55;;;;;;;;;;5113342;28;20031;-67
2021/08/05 11:33:36;;;;;;;47.92;35.97;;;;;;;;;;5111287;28;20565;-67
2021/08/05 11:38:58;;;;;;;60.53;42.30;;;;;;;;;;5118674;27;20406;-67
2021/08/05 11:41:36;;;;;;;52.00;37.00;;;;;;;;;;5127787;27;20058;-67
2021/08/05 11:44:32;;;;;;;54.35;41.05;;;;;;;;;;5113727;27;20027;-67
2021/08/05 11:47:01;;;;;;;53.13;39.47;;;;;;;;;;5094562;27;20056;-66
2021/08/05 11:49:41;;;;;;;45.95;34.70;;;;;;;;;;5114793;27;20027;-66
2021/08/05 11:52:11;;;;;;;53.63;39.10;;;;;;;;;;5112423;28;20024;-67
2021/08/05 11:54:38;;;;;;;47.45;36.42;;;;;;;;;;5109478;27;20448;-67
2021/08/05 11:57:05;;;;;;;51.92;41.13;;;;;;;;;;5112458;27;20036;-67
2021/08/05 11:59:40;;;;;;;47.45;37.25;;;;;;;;;;5119756;27;20023;-67
2021/08/05 12:02:16;;;;;;;49.50;37.00;;;;;;;;;;5110460;27;20032;-67
2021/08/05 12:04:42;;;;;;;50.45;38.08;;;;;;;;;;5115473;27;20038;-66
2021/08/05 12:07:22;;;;;;;44.75;33.05;;;;;;;;;;5109285;28;20067;-67
2021/08/05 12:09:49;;;;;;;43.20;33.85;;;;;;;;;;5117490;27;20020;-67
2021/08/05 12:12:15;;;;;;;49.47;36.00;;;;;;;;;;5123611;27;20207;-67
2021/08/05 12:14:48;;;;;;;45.50;34.42;;;;;;;;;;5121167;27;20023;-67
2021/08/05 12:17:14;;;;;;;50.97;39.53;;;;;;;;;;5107679;28;20038;-67
2021/08/05 12:19:50;;;;;;;44.25;35.13;;;;;;;;;;5106843;27;20049;-66
2021/08/05 12:22:16;;;;;;;43.38;33.20;;;;;;;;;;5121353;27;20031;-66
2021/08/05 12:24:44;;;;;;;40.85;30.85;;;;;;;;;;5117461;27;20029;-67
2021/08/05 12:27:15;;;;;;;43.05;30.25;;;;;;;;;;5118369;27;20028;-66
2021/08/05 12:29:42;;;;;;;47.63;34.65;;;;;;;;;;5114546;27;20038;-67
2021/08/05 12:32:08;;;;;;;50.88;38.88;;;;;;;;;;5115560;27;20023;-67
2021/08/05 12:34:34;;;;;;;60.35;42.70;;;;;;;;;;5113149;27;20096;-66
2021/08/05 12:37:21;;;;;;;54.25;42.10;;;;;;;;;;5108021;28;20028;-66
2021/08/05 12:39:47;;;;;;;57.53;44.00;;;;;;;;;;5122054;27;20023;-66
2021/08/05 12:42:15;;;;;;;63.35;47.50;;;;;;;;;;5125824;27;20027;-66
2021/08/05 12:44:41;;;;;;;62.33;45.33;;;;;;;;;;5121616;27;20039;-66
2021/08/05 12:47:08;;;;;;;56.67;42.53;;;;;;;;;;5109051;28;20036;-66
2021/08/05 12:49:36;;;;;;;59.15;44.95;;;;;;;;;;5110328;27;20015;-66
2021/08/05 12:52:03;;;;;;;52.55;40.28;;;;;;;;;;5109670;27;20050;-66
2021/08/05 12:54:29;;;;;;;52.35;41.30;;;;;;;;;;5128201;27;20108;-66
2021/08/05 12:56:59;;;;;;;54.20;40.80;;;;;;;;;;5114307;27;20027;-66
2021/08/05 12:59:40;;;;;;;64.05;47.03;;;;;;;;;;5106900;27;20020;-66
2021/08/05 13:02:07;;;;;;;60.63;46.33;;;;;;;;;;5109737;28;20136;-66
2021/08/05 13:04:35;;;;;;;63.90;47.53;;;;;;;;;;5115450;27;20036;-66
2021/08/05 13:07:01;;;;;;;58.90;43.97;;;;;;;;;;5108207;28;20539;-67
2021/08/05 13:09:28;;;;;;;53.58;42.25;;;;;;;;;;5099656;28;20032;-66
2021/08/05 13:11:56;;;;;;;43.55;37.38;;;;;;;;;;5116653;27;20032;-65
2021/08/05 13:14:32;;;;;;;43.53;35.30;;;;;;;;;;5111752;28;20028;-66
2021/08/05 13:17:28;;;;;;;43.00;33.08;;;;;;;;;;5116572;27;20042;-66
2021/08/05 13:19:55;;;;;;;52.10;38.72;;;;;;;;;;5110462;27;20035;-67
2021/08/05 13:22:48;;;;;;;48.55;39.08;;;;;;;;;;5111454;28;20031;-66
2021/08/05 13:25:17;;;;;;;50.42;40.42;;;;;;;;;;5105032;27;20130;-66
2021/08/05 13:27:44;;;;;;;45.45;34.28;;;;;;;;;;5106737;27;20564;-66
2021/08/05 13:30:16;;;;;;;43.15;34.17;;;;;;;;;;5111507;27;20019;-66
2021/08/05 13:32:45;;;;;;;42.35;33.65;;;;;;;;;;5112890;27;20102;-66
2021/08/05 13:35:12;;;;;;;46.08;37.03;;;;;;;;;;5107995;27;20494;-67
2021/08/05 13:37:39;;;;;;;51.22;38.35;;;;;;;;;;5118622;27;20023;-66
2021/08/05 13:40:09;;;;;;;50.65;40.22;;;;;;;;;;5114510;27;20050;-65
2021/08/05 13:42:37;;;;;;;44.92;35.92;;;;;;;;;;5112877;27;20032;-65
2021/08/05 13:45:03;;;;;;;51.38;36.92;;;;;;;;;;5116999;27;20053;-66
2021/08/05 13:47:29;;;;;;;38.75;30.67;;;;;;;;;;5113939;27;20019;-65
2021/08/05 13:49:55;;;;;;;43.00;34.00;;;;;;;;;;5112506;27;20043;-65
2021/08/05 13:52:21;;;;;;;37.63;27.88;;;;;;;;;;5111796;27;20180;-66
2021/08/05 13:54:48;;;;;;;36.03;28.85;;;;;;;;;;5112349;27;20494;-65
2021/08/05 13:57:14;;;;;;;41.95;32.15;;;;;;;;;;5106956;28;21438;-65
2021/08/05 13:59:40;;;;;;;39.83;32.00;;;;;;;;;;5110564;28;20071;-65
2021/08/05 14:02:06;;;;;;;32.55;25.95;;;;;;;;;;5111131;28;20031;-66
2021/08/05 14:04:32;;;;;;;36.67;29.13;;;;;;;;;;5114374;28;20035;-66
2021/08/05 14:07:00;;;;;;;39.92;30.92;;;;;;;;;;5111464;28;20570;-65
2021/08/05 14:09:26;;;;;;;34.53;27.55;;;;;;;;;;5114055;27;20110;-66
2021/08/05 14:11:52;;;;;;;46.15;35.10;;;;;;;;;;5116200;27;20022;-65
2021/08/05 14:14:19;;;;;;;53.70;43.53;;;;;;;;;;5114951;28;20027;-66
2021/08/05 14:16:45;;;;;;;54.80;43.55;;;;;;;;;;5108646;27;20089;-65
2021/08/05 14:19:16;;;;;;;49.63;41.67;;;;;;;;;;5109432;28;20071;-65
2021/08/05 14:21:42;;;;;;;58.17;39.08;;;;;;;;;;5109663;28;20506;-65